Time;durP1;ratioP1;P1;durP2;ratioP2;P2;SDS_P1;SDS_P2;PMS_P1;PMS_P2;Temp;Humidity;BMP_temperature;BMP_pressure;BME280_temperature;BME280_humidity;BME280_pressure;Samples;Min_cycle;Max_cycle;Signal;HPM_P1;HPM_P2
2021/03/20 00:01:24;;;;;;;5.45;3.10;;;1.50;96.10;;;;;;4966326;28;20264;-71
2021/03/20 00:03:51;;;;;;;4.63;2.53;;;1.40;96.10;;;;;;4970848;28;20298;-70
2021/03/20 00:06:21;;;;;;;5.50;3.15;;;1.40;96.30;;;;;;4965618;28;20199;-71
2021/03/20 00:08:50;;;;;;;7.18;3.17;;;1.40;96.30;;;;;;4965009;28;20198;-71
2021/03/20 00:11:19;;;;;;;3.50;2.80;;;1.40;96.40;;;;;;4966141;28;20319;-73
2021/03/20 00:13:46;;;;;;;7.05;3.88;;;1.40;96.40;;;;;;4974444;28;20618;-70
2021/03/20 00:16:14;;;;;;;7.05;3.58;;;1.40;96.50;;;;;;4970664;28;20297;-70
2021/03/20 00:18:42;;;;;;;4.30;3.03;;;1.30;96.70;;;;;;4966481;28;20233;-69
2021/03/20 00:21:10;;;;;;;5.35;4.13;;;1.30;96.80;;;;;;4971753;28;20306;-70
2021/03/20 00:23:38;;;;;;;4.75;3.40;;;1.30;97.40;;;;;;4974594;28;20203;-72
2021/03/20 00:26:05;;;;;;;8.85;3.38;;;1.30;97.20;;;;;;4968319;28;20594;-71
2021/03/20 00:28:34;;;;;;;4.60;3.88;;;1.30;97.40;;;;;;4971804;28;20232;-71
2021/03/20 00:31:05;;;;;;;3.65;2.60;;;1.20;97.60;;;;;;4966976;28;20226;-71
2021/03/20 00:33:32;;;;;;;4.68;2.75;;;1.30;97.50;;;;;;4970019;28;20692;-71
2021/03/20 00:35:59;;;;;;;3.55;2.83;;;1.30;96.40;;;;;;4973805;28;20206;-70
2021/03/20 00:38:28;;;;;;;4.40;2.92;;;1.30;96.70;;;;;;4971713;28;20257;-70
2021/03/20 00:40:57;;;;;;;4.63;2.90;;;1.20;96.80;;;;;;4969020;28;20626;-71
2021/03/20 00:43:25;;;;;;;10.70;3.60;;;1.20;97.20;;;;;;4964877;28;20202;-70
2021/03/20 00:45:54;;;;;;;5.63;3.80;;;1.20;97.00;;;;;;4966997;28;20206;-71
2021/03/20 00:48:23;;;;;;;4.75;2.80;;;1.30;97.60;;;;;;4969009;28;20202;-70
2021/03/20 00:50:50;;;;;;;4.10;2.85;;;1.40;97.30;;;;;;4965055;28;20226;-70
2021/03/20 00:53:17;;;;;;;8.20;3.10;;;1.30;97.20;;;;;;4959875;28;20214;-70
2021/03/20 00:55:43;;;;;;;6.68;3.00;;;1.40;97.30;;;;;;4976565;28;20198;-70
2021/03/20 00:58:25;;;;;;;3.85;2.90;;;1.30;97.00;;;;;;4974503;28;20202;-70
2021/03/20 01:00:57;;;;;;;4.13;3.10;;;1.30;97.30;;;;;;4973925;28;20230;-69
2021/03/20 01:03:23;;;;;;;8.02;2.90;;;1.30;97.30;;;;;;4962830;28;20678;-70
2021/03/20 01:05:50;;;;;;;4.15;3.42;;;1.30;97.10;;;;;;4964226;28;20211;-70
2021/03/20 01:08:18;;;;;;;4.38;2.55;;;1.30;97.30;;;;;;4964267;28;20202;-70
2021/03/20 01:10:45;;;;;;;5.78;3.15;;;1.30;97.50;;;;;;4967063;28;20219;-69
2021/03/20 01:13:12;;;;;;;5.88;3.05;;;1.30;97.50;;;;;;4969291;28;20210;-71
2021/03/20 01:15:39;;;;;;;5.20;2.85;;;1.20;97.20;;;;;;4974073;28;20202;-70
2021/03/20 01:18:07;;;;;;;8.70;3.38;;;1.20;97.60;;;;;;4962337;28;20623;-70
2021/03/20 01:20:34;;;;;;;5.10;3.22;;;1.20;97.30;;;;;;4964574;28;20229;-69
2021/03/20 01:23:01;;;;;;;4.75;2.65;;;1.10;97.50;;;;;;4964848;28;20211;-70
2021/03/20 01:25:28;;;;;;;6.00;4.15;;;1.00;97.50;;;;;;4965306;28;20700;-71
2021/03/20 01:27:54;;;;;;;3.15;2.60;;;1.00;97.70;;;;;;4973003;28;20206;-71
2021/03/20 01:30:24;;;;;;;6.28;3.05;;;1.00;97.80;;;;;;4972613;28;20218;-73
2021/03/20 01:32:51;;;;;;;5.85;3.13;;;1.00;97.80;;;;;;4962281;28;20202;-72
2021/03/20 01:35:19;;;;;;;7.03;2.95;;;1.00;97.80;;;;;;4960531;28;20289;-72
2021/03/20 01:37:46;;;;;;;7.88;3.17;;;1.00;98.00;;;;;;4973168;28;20198;-71
2021/03/20 01:40:14;;;;;;;4.07;2.92;;;1.00;98.60;;;;;;4966672;28;20316;-72
2021/03/20 01:42:42;;;;;;;5.30;3.92;;;1.00;98.30;;;;;;4973035;28;20214;-72
2021/03/20 01:45:18;;;;;;;3.85;2.97;;;1.00;98.20;;;;;;4973567;28;20285;-71
2021/03/20 01:47:51;;;;;;;5.15;3.25;;;0.90;98.30;;;;;;4973548;28;20260;-71
2021/03/20 01:50:26;;;;;;;7.45;3.20;;;0.90;98.40;;;;;;4968253;28;20272;-71
2021/03/20 01:52:57;;;;;;;5.72;3.20;;;1.00;99.10;;;;;;4973450;28;20205;-72
2021/03/20 01:55:25;;;;;;;4.55;3.00;;;1.10;99.20;;;;;;4970010;28;20705;-69
2021/03/20 01:57:55;;;;;;;3.35;2.75;;;1.00;98.40;;;;;;4969145;28;20289;-71
2021/03/20 02:00:28;;;;;;;5.35;2.85;;;1.10;99.00;;;;;;4972465;28;20225;-71
2021/03/20 02:02:55;;;;;;;5.10;3.25;;;1.20;98.70;;;;;;4969970;28;20206;-72
2021/03/20 02:05:27;;;;;;;5.75;3.45;;;1.20;98.70;;;;;;4963924;28;20213;-71
2021/03/20 02:07:55;;;;;;;5.95;3.60;;;1.20;98.60;;;;;;4974748;28;20203;-71
2021/03/20 02:10:22;;;;;;;6.22;3.15;;;1.00;97.80;;;;;;4966820;28;20269;-70
2021/03/20 02:12:55;;;;;;;2.90;2.60;;;1.00;98.30;;;;;;4970909;28;20206;-71
2021/03/20 02:15:27;;;;;;;9.63;3.92;;;0.90;98.60;;;;;;4967513;28;20684;-71
2021/03/20 02:18:00;;;;;;;8.40;3.33;;;0.80;98.70;;;;;;4974028;28;20216;-72
2021/03/20 02:20:51;;;;;;;3.70;2.50;;;0.80;98.90;;;;;;4968463;28;20313;-72
2021/03/20 02:23:51;;;;;;;4.20;3.10;;;0.90;99.70;;;;;;4967426;28;20681;-70
2021/03/20 02:27:00;;;;;;;10.90;3.55;;;0.90;99.40;;;;;;4972287;28;20631;-70
2021/03/20 02:29:53;;;;;;;4.38;2.42;;;0.90;99.40;;;;;;4975655;28;20238;-74
2021/03/20 02:32:39;;;;;;;6.60;2.92;;;1.00;99.30;;;;;;4968627;28;20618;-73
2021/03/20 02:35:12;;;;;;;6.70;2.92;;;0.90;99.30;;;;;;4972440;28;20202;-73
2021/03/20 02:37:46;;;;;;;5.53;3.35;;;0.90;99.40;;;;;;4973165;28;20207;-73
2021/03/20 02:40:21;;;;;;;4.38;2.70;;;0.90;99.90;;;;;;4973478;28;20273;-72
2021/03/20 02:42:58;;;;;;;7.80;3.72;;;0.90;99.90;;;;;;4971529;28;20214;-72
2021/03/20 02:45:30;;;;;;;4.60;2.90;;;0.70;99.80;;;;;;4978800;28;20206;-74
2021/03/20 02:48:07;;;;;;;8.35;2.72;;;0.70;99.90;;;;;;4969867;28;20565;-74
2021/03/20 02:50:41;;;;;;;7.35;2.60;;;0.70;99.90;;;;;;4972734;28;20218;-73
2021/03/20 02:53:13;;;;;;;3.92;2.30;;;0.80;99.90;;;;;;4976808;28;20217;-74
2021/03/20 02:55:43;;;;;;;5.30;2.72;;;0.80;99.90;;;;;;4963028;28;20213;-73
2021/03/20 02:58:15;;;;;;;3.00;2.70;;;0.90;99.90;;;;;;4971688;28;20316;-72
2021/03/20 03:00:47;;;;;;;7.35;4.25;;;0.90;99.90;;;;;;4972210;28;20238;-73
2021/03/20 03:03:16;;;;;;;7.60;3.08;;;0.90;99.80;;;;;;4976344;28;20206;-73
2021/03/20 03:05:47;;;;;;;10.43;3.28;;;0.90;99.80;;;;;;4971770;28;20210;-73
2021/03/20 03:08:18;;;;;;;3.97;3.05;;;1.00;99.90;;;;;;4973156;28;20202;-73
2021/03/20 03:10:48;;;;;;;7.22;2.65;;;1.00;99.90;;;;;;4966221;28;20309;-73
2021/03/20 03:13:19;;;;;;;6.18;3.40;;;0.90;99.80;;;;;;4965666;28;20852;-73
2021/03/20 03:15:51;;;;;;;3.35;2.80;;;0.90;99.90;;;;;;4976892;28;20285;-73
2021/03/20 03:18:24;;;;;;;5.22;2.42;;;0.90;99.80;;;;;;4974321;28;20202;-74
2021/03/20 03:20:55;;;;;;;6.82;3.28;;;0.90;99.60;;;;;;4970436;28;20241;-73
2021/03/20 03:23:25;;;;;;;5.05;3.15;;;0.90;99.20;;;;;;4971808;28;20206;-73
2021/03/20 03:25:56;;;;;;;6.07;2.53;;;0.90;99.20;;;;;;4966163;28;20210;-73
2021/03/20 03:28:28;;;;;;;6.78;3.40;;;0.90;98.80;;;;;;4967517;28;20210;-73
2021/03/20 03:30:56;;;;;;;4.95;2.83;;;0.90;99.20;;;;;;4964625;28;20264;-73
2021/03/20 03:33:27;;;;;;;3.80;2.60;;;0.80;98.90;;;;;;4968150;28;20211;-72
2021/03/20 03:35:58;;;;;;;4.63;2.15;;;0.80;99.00;;;;;;4974394;28;20206;-74
2021/03/20 03:38:38;;;;;;;5.57;3.58;;;0.80;99.00;;;;;;4965686;28;20217;-72
2021/03/20 03:41:11;;;;;;;9.93;3.17;;;0.70;98.80;;;;;;4973328;28;20288;-74
2021/03/20 03:43:39;;;;;;;3.00;2.13;;;0.60;98.80;;;;;;4969135;28;20638;-71
2021/03/20 03:46:07;;;;;;;8.82;2.70;;;0.60;99.10;;;;;;4969077;28;20558;-71
2021/03/20 03:48:35;;;;;;;7.97;2.72;;;0.50;99.40;;;;;;4969008;28;20289;-69
2021/03/20 03:51:09;;;;;;;4.10;2.53;;;0.50;99.80;;;;;;4975654;28;20709;-69
2021/03/20 03:53:36;;;;;;;5.93;2.50;;;0.60;99.90;;;;;;4976872;28;20206;-69
2021/03/20 03:56:17;;;;;;;2.85;2.38;;;0.60;99.90;;;;;;4971720;28;20210;-70
2021/03/20 03:58:55;;;;;;;5.18;2.17;;;0.60;99.90;;;;;;4974179;28;20210;-70
2021/03/20 04:04:46;;;;;;;5.38;3.90;;;0.50;99.90;;;;;;4974850;28;20614;-70
2021/03/20 04:07:40;;;;;;;7.00;3.67;;;0.40;99.90;;;;;;4969576;28;20279;-69
2021/03/20 04:10:15;;;;;;;5.20;3.20;;;0.30;99.90;;;;;;4958734;28;20218;-70
2021/03/20 04:12:50;;;;;;;7.18;3.15;;;0.30;99.90;;;;;;4967675;28;20222;-70
2021/03/20 04:15:24;;;;;;;4.72;3.13;;;0.30;99.90;;;;;;4960402;28;20205;-70
2021/03/20 04:18:02;;;;;;;5.10;2.60;;;0.50;99.90;;;;;;4965776;28;20260;-71
2021/03/20 04:20:45;;;;;;;7.07;2.85;;;0.60;99.90;;;;;;4967488;28;20369;-73
2021/03/20 04:23:18;;;;;;;5.97;3.03;;;0.70;99.90;;;;;;4967474;28;20206;-70
2021/03/20 04:25:51;;;;;;;3.33;2.63;;;0.80;99.90;;;;;;4974888;28;20195;-70
2021/03/20 04:28:31;;;;;;;5.50;3.25;;;0.90;99.90;;;;;;4964385;28;20579;-70
2021/03/20 04:31:13;;;;;;;3.80;2.40;;;0.90;99.90;;;;;;4966961;28;20317;-70
2021/03/20 04:33:47;;;;;;;7.00;2.63;;;0.90;99.90;;;;;;4973250;28;20256;-72
2021/03/20 04:36:18;;;;;;;3.53;3.08;;;0.90;99.90;;;;;;4964863;28;20265;-73
2021/03/20 04:38:46;;;;;;;5.57;2.72;;;0.90;99.80;;;;;;4970673;28;20205;-72
2021/03/20 04:41:39;;;;;;;4.72;2.70;;;0.80;99.90;;;;;;4970250;28;20288;-73
2021/03/20 04:44:07;;;;;;;3.97;2.67;;;0.80;99.90;;;;;;4966860;28;20238;-70
2021/03/20 04:46:38;;;;;;;4.00;3.13;;;0.80;99.90;;;;;;4974167;28;20224;-69
2021/03/20 04:49:18;;;;;;;4.18;2.30;;;0.90;99.90;;;;;;4965274;28;20201;-70
2021/03/20 04:51:51;;;;;;;5.78;3.35;;;0.90;99.60;;;;;;4967756;28;20229;-69
2021/03/20 04:56:51;;;;;;;4.22;2.97;;;0.80;99.10;;;;;;4967623;28;20668;-73
2021/03/20 04:59:36;;;;;;;5.00;2.50;;;0.80;99.40;;;;;;4969314;28;20681;-73
2021/03/20 05:02:12;;;;;;;5.07;2.92;;;0.90;99.60;;;;;;4948462;29;20217;-74
2021/03/20 05:04:42;;;;;;;4.07;2.45;;;0.90;99.40;;;;;;4951552;29;20202;-73
2021/03/20 05:07:10;;;;;;;3.20;2.40;;;0.90;99.40;;;;;;4943561;29;20228;-73
2021/03/20 05:09:37;;;;;;;8.85;2.45;;;0.90;99.40;;;;;;4948046;28;20231;-74
2021/03/20 05:12:23;;;;;;;4.50;3.15;;;0.90;99.50;;;;;;4953387;28;20293;-73
2021/03/20 05:14:54;;;;;;;4.72;2.60;;;1.00;99.80;;;;;;4940708;29;20609;-73
2021/03/20 05:17:22;;;;;;;3.97;2.60;;;1.10;99.70;;;;;;4947185;29;20191;-73
2021/03/20 05:19:49;;;;;;;7.60;3.08;;;1.20;99.90;;;;;;4947775;28;20231;-74
2021/03/20 05:22:22;;;;;;;4.53;2.50;;;1.20;99.40;;;;;;4950614;28;20544;-73
2021/03/20 05:24:50;;;;;;;5.75;4.35;;;1.30;99.40;;;;;;4951646;28;20289;-73
2021/03/20 05:27:20;;;;;;;5.40;3.63;;;1.30;99.30;;;;;;4954065;29;20206;-73
2021/03/20 05:29:47;;;;;;;8.90;3.38;;;1.30;99.40;;;;;;4949913;28;20241;-73
2021/03/20 05:32:17;;;;;;;13.30;2.80;;;1.30;99.10;;;;;;4948252;28;20684;-73
2021/03/20 05:34:45;;;;;;;3.92;3.03;;;1.10;99.10;;;;;;4946600;29;20299;-73
2021/03/20 05:37:24;;;;;;;12.25;3.53;;;1.30;99.60;;;;;;4948878;29;20633;-73
2021/03/20 05:39:51;;;;;;;4.90;2.92;;;1.30;99.60;;;;;;4953448;28;20233;-73
2021/03/20 05:42:39;;;;;;;3.33;2.58;;;1.30;99.10;;;;;;4947855;28;20291;-74
2021/03/20 05:45:28;;;;;;;8.07;3.53;;;1.30;99.30;;;;;;4954289;28;20206;-73
2021/03/20 05:48:07;;;;;;;3.65;2.88;;;1.20;99.00;;;;;;4949066;28;20221;-74
2021/03/20 05:51:15;;;;;;;4.20;3.10;;;1.20;99.10;;;;;;4951649;28;20574;-73
2021/03/20 05:54:27;;;;;;;6.30;3.35;;;1.20;99.00;;;;;;4875784;29;20240;-73
2021/03/20 05:57:10;;;;;;;8.65;3.45;;;1.10;98.90;;;;;;4873817;29;20202;-73
2021/03/20 05:59:52;;;;;;;5.47;2.63;;;1.00;99.20;;;;;;4949580;28;20226;-73
2021/03/20 06:02:33;;;;;;;3.00;2.47;;;1.00;99.20;;;;;;4956803;29;20549;-73
2021/03/20 06:05:16;;;;;;;3.75;2.55;;;0.90;99.10;;;;;;4954934;29;20282;-76
2021/03/20 06:08:18;;;;;;;3.30;2.25;;;0.80;99.70;;;;;;4951953;28;20236;-73
2021/03/20 06:10:54;;;;;;;3.67;2.40;;;0.90;99.90;;;;;;4951011;28;20313;-73
2021/03/20 06:13:48;;;;;;;5.50;2.95;;;0.90;99.90;;;;;;4951706;29;20246;-72
2021/03/20 06:16:28;;;;;;;4.00;2.60;;;0.90;99.90;;;;;;4946343;29;20215;-72
2021/03/20 06:19:24;;;;;;;3.40;2.67;;;1.00;99.90;;;;;;4956717;28;20281;-73
2021/03/20 06:22:13;;;;;;;5.70;3.50;;;1.10;99.90;;;;;;4931925;28;20289;-73
2021/03/20 06:25:20;;;;;;;5.60;3.20;;;1.30;99.90;;;;;;4956260;29;20221;-73
2021/03/20 06:27:50;;;;;;;8.35;2.83;;;1.30;99.90;;;;;;4897939;29;20205;-73
2021/03/20 06:30:33;;;;;;;3.92;3.53;;;1.40;99.90;;;;;;4941547;28;20690;-74
2021/03/20 06:33:08;;;;;;;5.45;2.90;;;1.60;99.90;;;;;;4950591;29;20654;-72
2021/03/20 06:35:39;;;;;;;5.00;3.33;;;1.70;99.20;;;;;;4954667;29;20209;-72
2021/03/20 06:38:10;;;;;;;6.55;3.47;;;1.70;99.10;;;;;;4950108;28;20215;-74
2021/03/20 06:40:53;;;;;;;5.75;2.95;;;1.60;99.20;;;;;;4951976;28;20234;-74
2021/03/20 06:43:26;;;;;;;4.35;3.50;;;1.60;99.60;;;;;;4949074;29;20203;-74
2021/03/20 06:45:54;;;;;;;9.27;3.63;;;1.70;99.70;;;;;;4951529;29;20199;-74
2021/03/20 06:48:24;;;;;;;5.60;2.90;;;1.80;99.90;;;;;;4954231;29;20208;-73
2021/03/20 06:50:54;;;;;;;4.90;3.03;;;1.80;99.50;;;;;;4948727;28;20233;-73
2021/03/20 06:53:33;;;;;;;6.10;3.33;;;1.70;98.90;;;;;;4957078;29;20207;-74
2021/03/20 06:56:06;;;;;;;4.22;2.85;;;1.60;99.20;;;;;;4955949;29;20535;-74
2021/03/20 06:58:35;;;;;;;6.90;3.17;;;1.50;99.60;;;;;;4944156;29;20291;-74
2021/03/20 07:01:07;;;;;;;7.22;3.50;;;1.60;99.90;;;;;;4948649;29;20277;-73
2021/03/20 07:04:04;;;;;;;6.03;3.40;;;1.80;99.90;;;;;;4955250;28;20205;-73
2021/03/20 07:06:40;;;;;;;7.00;3.28;;;2.00;99.90;;;;;;4949167;29;20211;-73
2021/03/20 07:09:09;;;;;;;4.65;2.97;;;2.10;99.90;;;;;;4951426;28;20281;-74
2021/03/20 07:11:38;;;;;;;4.63;2.60;;;2.10;99.30;;;;;;4956201;29;20230;-73
2021/03/20 07:14:09;;;;;;;9.55;2.72;;;2.10;99.00;;;;;;4945514;29;20234;-73
2021/03/20 07:16:53;;;;;;;10.13;3.10;;;1.90;99.10;;;;;;4950193;29;20238;-73
2021/03/20 07:19:20;;;;;;;3.58;2.30;;;1.90;98.90;;;;;;4952986;29;20624;-73
2021/03/20 07:22:04;;;;;;;6.95;5.07;;;1.90;99.10;;;;;;4954704;28;20231;-74
2021/03/20 07:24:34;;;;;;;2.83;2.50;;;2.00;99.80;;;;;;4956723;29;20207;-73
2021/03/20 07:27:05;;;;;;;4.07;2.58;;;2.20;99.80;;;;;;4944773;28;20208;-74
2021/03/20 07:29:42;;;;;;;3.65;2.60;;;2.10;98.80;;;;;;4943314;28;20235;-74
2021/03/20 07:32:14;;;;;;;7.68;3.03;;;2.10;98.50;;;;;;4953876;29;20214;-73
2021/03/20 07:34:41;;;;;;;9.32;3.67;;;2.20;98.60;;;;;;4949149;29;20203;-74
2021/03/20 07:37:15;;;;;;;4.47;2.70;;;2.30;98.40;;;;;;4946699;29;20207;-73
2021/03/20 07:39:46;;;;;;;5.60;2.53;;;2.30;97.70;;;;;;4949915;28;20223;-74
2021/03/20 07:42:33;;;;;;;6.05;2.60;;;2.30;97.80;;;;;;4944956;28;20206;-73
2021/03/20 07:45:04;;;;;;;5.53;3.15;;;2.40;97.80;;;;;;4950267;29;20290;-74
2021/03/20 07:47:34;;;;;;;7.22;3.92;;;2.40;97.50;;;;;;4951276;29;20259;-74
2021/03/20 07:50:25;;;;;;;7.22;3.65;;;2.50;97.10;;;;;;4945151;29;20231;-74
2021/03/20 07:53:10;;;;;;;5.22;3.10;;;2.50;96.80;;;;;;4951907;29;20230;-73
2021/03/20 07:55:54;;;;;;;3.55;2.83;;;2.50;96.70;;;;;;4946478;29;20208;-73
2021/03/20 07:58:24;;;;;;;8.82;3.55;;;2.60;96.90;;;;;;4952199;29;20640;-76
2021/03/20 08:00:56;;;;;;;5.18;2.83;;;2.70;97.00;;;;;;4954780;28;20313;-74
2021/03/20 08:03:28;;;;;;;4.80;2.70;;;2.90;96.50;;;;;;4944640;29;20272;-74
2021/03/20 08:06:09;;;;;;;3.92;2.88;;;2.90;95.80;;;;;;4951731;28;20210;-74
2021/03/20 08:08:37;;;;;;;6.55;2.70;;;3.00;95.90;;;;;;4955249;28;20663;-75
2021/03/20 08:11:05;;;;;;;4.70;2.80;;;3.20;96.00;;;;;;4949102;28;20452;-73
2021/03/20 08:13:45;;;;;;;9.50;2.55;;;3.30;95.50;;;;;;4948394;28;20211;-74
2021/03/20 08:16:15;;;;;;;4.85;2.40;;;3.50;94.80;;;;;;4949970;29;20561;-73
2021/03/20 08:18:43;;;;;;;5.80;2.30;;;3.40;94.30;;;;;;4951244;29;20286;-75
2021/03/20 08:21:37;;;;;;;4.20;2.75;;;3.30;94.40;;;;;;4953164;28;20239;-74
2021/03/20 08:24:28;;;;;;;4.55;2.15;;;3.40;94.40;;;;;;4949794;29;20301;-74
2021/03/20 08:27:04;;;;;;;10.77;2.33;;;3.50;94.50;;;;;;4951024;29;20208;-74
2021/03/20 08:29:53;;;;;;;4.15;2.03;;;3.60;94.40;;;;;;4944043;28;20730;-72
2021/03/20 08:32:32;;;;;;;3.15;2.20;;;3.60;93.90;;;;;;4951353;29;20202;-74
2021/03/20 08:35:11;;;;;;;3.40;2.38;;;3.60;93.60;;;;;;4953353;29;20207;-75
2021/03/20 08:37:55;;;;;;;3.85;2.05;;;3.50;93.50;;;;;;4945213;29;20216;-74
2021/03/20 08:40:42;;;;;;;3.40;2.40;;;3.70;93.40;;;;;;4951370;28;20233;-75
2021/03/20 08:43:40;;;;;;;5.18;2.25;;;4.00;93.00;;;;;;4948360;29;20635;-75
2021/03/20 08:46:20;;;;;;;6.57;3.22;;;4.30;92.30;;;;;;4946390;29;20207;-74
2021/03/20 08:48:54;;;;;;;8.60;3.35;;;4.90;94.20;;;;;;4946517;29;20542;-72
2021/03/20 08:51:40;;;;;;;3.88;2.10;;;5.50;93.40;;;;;;4949131;28;20222;-73
2021/03/20 08:54:26;;;;;;;2.83;2.05;;;5.80;93.10;;;;;;4946761;28;20632;-74
2021/03/20 08:57:08;;;;;;;5.10;2.72;;;6.10;91.00;;;;;;4940210;29;20295;-74
2021/03/20 08:59:37;;;;;;;4.70;2.22;;;6.70;90.70;;;;;;4941685;28;20335;-74
2021/03/20 09:02:17;;;;;;;6.43;2.35;;;7.10;86.70;;;;;;4946515;28;20210;-74
2021/03/20 09:04:45;;;;;;;2.35;1.90;;;7.40;87.70;;;;;;4941825;29;20260;-74
2021/03/20 09:07:21;;;;;;;5.93;2.90;;;7.10;84.40;;;;;;4952088;28;20268;-75
2021/03/20 09:09:52;;;;;;;4.45;2.60;;;7.40;84.40;;;;;;4946590;28;20566;-74
2021/03/20 09:12:31;;;;;;;4.45;2.00;;;7.40;82.80;;;;;;4946209;29;20659;-74
2021/03/20 09:14:58;;;;;;;3.42;2.00;;;7.50;80.80;;;;;;4951374;29;20680;-74
2021/03/20 09:17:31;;;;;;;6.22;2.53;;;7.10;80.00;;;;;;4951864;28;20250;-74
2021/03/20 09:20:11;;;;;;;3.55;2.40;;;6.90;81.60;;;;;;4946972;28;20234;-74
2021/03/20 09:22:44;;;;;;;3.80;2.67;;;6.70;82.60;;;;;;4954053;29;20513;-71
2021/03/20 09:25:19;;;;;;;4.88;2.40;;;6.50;83.30;;;;;;4952257;28;20564;-72
2021/03/20 09:28:06;;;;;;;3.90;2.40;;;6.60;84.00;;;;;;4943604;29;20650;-74
2021/03/20 09:30:36;;;;;;;4.32;2.95;;;6.60;84.30;;;;;;4952897;28;20305;-73
2021/03/20 09:33:06;;;;;;;2.40;2.20;;;6.60;82.20;;;;;;4948817;28;20741;-72
2021/03/20 09:35:42;;;;;;;4.22;2.60;;;6.40;81.70;;;;;;4941352;29;20286;-73
2021/03/20 09:38:10;;;;;;;6.80;2.55;;;6.30;84.40;;;;;;4944478;29;20619;-72
2021/03/20 09:41:03;;;;;;;3.22;2.20;;;5.90;82.50;;;;;;4949740;28;20233;-72
2021/03/20 09:43:45;;;;;;;4.38;2.67;;;6.10;84.20;;;;;;4945499;29;20632;-73
2021/03/20 09:46:46;;;;;;;3.38;2.17;;;6.20;86.80;;;;;;4944880;29;20222;-74
2021/03/20 09:49:52;;;;;;;5.30;3.05;;;6.80;84.70;;;;;;4873580;29;20304;-72
2021/03/20 09:52:39;;;;;;;3.17;2.20;;;6.80;84.40;;;;;;4954781;29;20215;-74
2021/03/20 09:55:49;;;;;;;3.10;2.10;;;6.60;81.60;;;;;;4954403;28;20558;-72
2021/03/20 09:58:39;;;;;;;2.13;1.90;;;6.50;80.00;;;;;;4952343;29;20211;-72
2021/03/20 10:01:20;;;;;;;3.60;2.35;;;6.30;79.20;;;;;;4942674;28;20257;-72
2021/03/20 10:03:53;;;;;;;3.75;2.13;;;6.00;79.70;;;;;;4948429;29;20209;-73
2021/03/20 10:06:31;;;;;;;5.75;2.50;;;5.90;79.40;;;;;;4943234;29;20581;-71
2021/03/20 10:09:25;;;;;;;5.43;2.03;;;5.80;78.00;;;;;;4939674;29;20207;-74
2021/03/20 10:12:14;;;;;;;3.58;2.10;;;5.90;77.90;;;;;;4943365;29;20710;-74
2021/03/20 10:15:20;;;;;;;9.43;2.22;;;6.10;77.80;;;;;;4950602;29;20257;-71
2021/03/20 10:18:17;;;;;;;5.43;2.85;;;6.10;77.70;;;;;;4943912;29;20556;-73
2021/03/20 10:20:55;;;;;;;3.50;2.55;;;6.40;77.10;;;;;;4937743;28;20235;-72
2021/03/20 10:23:32;;;;;;;4.32;2.40;;;6.60;77.10;;;;;;4942829;29;20453;-72
2021/03/20 10:26:02;;;;;;;4.85;2.72;;;6.50;76.00;;;;;;4944564;29;20202;-72
2021/03/20 10:28:29;;;;;;;6.32;2.45;;;6.50;76.50;;;;;;4945144;29;20560;-72
2021/03/20 10:30:59;;;;;;;4.28;2.40;;;6.70;78.10;;;;;;4943501;28;20941;-71
2021/03/20 10:33:29;;;;;;;8.07;2.25;;;6.70;77.70;;;;;;4950028;29;20256;-72
2021/03/20 10:36:10;;;;;;;5.90;2.90;;;6.60;77.10;;;;;;4953012;28;20801;-72
2021/03/20 10:38:37;;;;;;;4.55;2.88;;;6.70;78.50;;;;;;4947574;29;20294;-72
2021/03/20 10:41:07;;;;;;;5.30;2.60;;;7.20;78.90;;;;;;4952419;28;20311;-73
2021/03/20 10:43:42;;;;;;;4.97;2.58;;;7.10;78.40;;;;;;4953655;28;20238;-71
2021/03/20 10:46:16;;;;;;;6.10;3.17;;;7.50;80.20;;;;;;4951111;29;20205;-73
2021/03/20 10:48:42;;;;;;;4.40;3.00;;;7.50;77.20;;;;;;4944875;29;20208;-71
2021/03/20 10:51:09;;;;;;;8.05;3.00;;;7.30;78.60;;;;;;4950701;28;20248;-72
2021/03/20 10:53:46;;;;;;;5.90;3.25;;;7.40;80.80;;;;;;4954850;29;20235;-71
2021/03/20 10:56:35;;;;;;;4.93;3.00;;;7.70;80.60;;;;;;5062522;23;20271;-82
2021/03/20 10:59:22;;;;;;;10.95;3.97;;;7.40;78.60;;;;;;4987357;28;20210;-83
2021/03/20 11:01:51;;;;;;;3.75;3.42;;;7.20;80.80;;;;;;4984947;28;20223;-82
2021/03/20 11:04:28;;;;;;;4.88;3.22;;;7.10;82.20;;;;;;4990827;28;20210;-82
2021/03/20 11:06:58;;;;;;;7.35;4.05;;;7.50;83.60;;;;;;4980414;28;20303;-82
2021/03/20 11:09:31;;;;;;;5.35;3.60;;;7.30;80.30;;;;;;4990830;28;20245;-81
2021/03/20 11:12:05;;;;;;;7.18;3.88;;;7.00;81.20;;;;;;4988550;28;20211;-82
2021/03/20 11:14:49;;;;;;;5.95;4.25;;;7.00;82.40;;;;;;4977924;28;20225;-81
2021/03/20 11:17:21;;;;;;;7.15;3.30;;;7.20;83.00;;;;;;4985079;28;20197;-82
2021/03/20 11:19:49;;;;;;;5.80;4.03;;;7.40;82.00;;;;;;4989605;28;20257;-83
2021/03/20 11:22:20;;;;;;;5.45;4.35;;;7.60;81.30;;;;;;4987389;28;20295;-80
2021/03/20 11:24:53;;;;;;;4.75;3.50;;;7.50;80.70;;;;;;4986956;28;20220;-82
2021/03/20 11:27:22;;;;;;;7.22;4.93;;;7.40;81.30;;;;;;4986462;28;20215;-82
2021/03/20 11:29:51;;;;;;;4.90;4.40;;;7.30;82.70;;;;;;4991251;28;20207;-82
2021/03/20 11:32:24;;;;;;;7.30;5.97;;;7.30;83.10;;;;;;4990436;28;20211;-82
2021/03/20 11:35:05;;;;;;;7.88;5.97;;;7.40;85.70;;;;;;4982387;28;20244;-82
2021/03/20 11:37:33;;;;;;;9.63;5.15;;;7.80;86.10;;;;;;4995445;28;20212;-82
2021/03/20 11:40:04;;;;;;;7.75;4.72;;;7.90;85.10;;;;;;4987362;28;20297;-82
2021/03/20 11:42:37;;;;;;;7.90;6.05;;;7.80;85.70;;;;;;4988348;28;20208;-83
2021/03/20 11:45:08;;;;;;;8.27;5.60;;;8.00;86.20;;;;;;4985715;28;20228;-83
2021/03/20 11:48:19;;;;;;;9.90;5.85;;;8.20;86.10;;;;;;4986241;28;20335;-83
2021/03/20 11:54:44;;;;;;;8.77;6.10;;;8.20;86.40;;;;;;4986224;28;20209;-83
2021/03/20 11:57:29;;;;;;;6.85;5.55;;;8.10;86.50;;;;;;4984812;28;20240;-83
2021/03/20 11:59:56;;;;;;;7.60;5.68;;;8.30;87.50;;;;;;4982074;28;20313;-84
2021/03/20 12:02:41;;;;;;;6.20;5.60;;;8.00;87.20;;;;;;4995110;28;20243;-83
2021/03/20 12:05:23;;;;;;;9.90;5.38;;;8.00;88.00;;;;;;4983719;28;20230;-82
2021/03/20 12:07:51;;;;;;;7.63;6.82;;;7.90;89.00;;;;;;4992913;28;20260;-83
2021/03/20 12:10:23;;;;;;;10.80;6.93;;;8.10;89.00;;;;;;4991730;28;20220;-84
2021/03/20 12:12:51;;;;;;;7.00;6.28;;;8.10;90.20;;;;;;4981439;28;20194;-83
2021/03/20 12:15:25;;;;;;;6.85;5.47;;;8.30;89.50;;;;;;4990418;28;20224;-83
2021/03/20 12:17:53;;;;;;;6.45;5.85;;;8.30;88.70;;;;;;4983305;28;20236;-83
2021/03/20 12:20:41;;;;;;;7.85;6.05;;;8.50;89.40;;;;;;4993262;28;20213;-85
2021/03/20 12:23:16;;;;;;;7.95;6.40;;;8.60;89.80;;;;;;4985342;28;20210;-82
2021/03/20 12:25:48;;;;;;;5.75;5.22;;;8.70;89.40;;;;;;4992794;28;20268;-83
2021/03/20 12:28:36;;;;;;;9.25;7.13;;;8.80;89.80;;;;;;4979591;28;20292;-84
2021/03/20 12:31:12;;;;;;;9.80;6.97;;;8.80;90.00;;;;;;4985031;28;20226;-84
2021/03/20 12:33:47;;;;;;;7.18;6.07;;;8.60;90.20;;;;;;4990495;28;20590;-82
2021/03/20 12:36:29;;;;;;;8.05;6.30;;;8.30;90.40;;;;;;4992132;28;20286;-83
2021/03/20 12:38:56;;;;;;;8.40;7.25;;;8.20;90.80;;;;;;4991497;28;20208;-82
2021/03/20 12:41:26;;;;;;;8.82;6.07;;;8.20;91.20;;;;;;4980497;28;20229;-83
2021/03/20 12:44:11;;;;;;;5.82;5.18;;;8.30;91.10;;;;;;4981880;28;20365;-83
2021/03/20 12:46:40;;;;;;;6.40;5.80;;;8.40;91.20;;;;;;4978092;28;20701;-83
2021/03/20 12:49:12;;;;;;;7.28;5.97;;;8.80;90.90;;;;;;4994389;28;20213;-83
2021/03/20 12:51:39;;;;;;;8.45;6.70;;;9.00;90.50;;;;;;4988680;28;20227;-83
2021/03/20 12:54:06;;;;;;;6.20;5.57;;;8.50;90.30;;;;;;4986589;28;20199;-81
2021/03/20 12:56:33;;;;;;;11.07;6.00;;;8.30;91.00;;;;;;4993819;28;20197;-84
2021/03/20 12:59:00;;;;;;;8.77;6.65;;;8.20;91.30;;;;;;4982875;28;20273;-82
2021/03/20 13:01:27;;;;;;;7.68;5.75;;;8.20;91.80;;;;;;4997107;28;20217;-84
2021/03/20 13:07:09;;;;;;;6.60;5.30;;;8.30;92.40;;;;;;4966822;28;20269;-81
2021/03/20 13:09:36;;;;;;;9.25;6.40;;;8.50;92.00;;;;;;4989732;28;20261;-82
2021/03/20 13:12:06;;;;;;;7.85;6.88;;;8.60;92.00;;;;;;4996860;28;20272;-82
2021/03/20 13:14:34;;;;;;;9.18;7.38;;;8.30;92.00;;;;;;4994785;28;20221;-85
2021/03/20 13:17:01;;;;;;;6.88;5.40;;;8.30;92.40;;;;;;4992607;28;20273;-85
2021/03/20 13:19:28;;;;;;;6.20;5.53;;;8.60;92.20;;;;;;4993072;28;20197;-85
2021/03/20 13:24:39;;;;;;;8.30;5.82;;;8.70;92.10;;;;;;4987759;28;20245;-84
2021/03/20 13:27:13;;;;;;;6.13;5.53;;;8.80;92.10;;;;;;4991752;28;20214;-85
2021/03/20 13:29:39;;;;;;;8.30;6.57;;;8.80;92.00;;;;;;4986347;28;20218;-84
2021/03/20 13:32:12;;;;;;;8.35;5.70;;;8.80;92.10;;;;;;4987323;28;20260;-85
2021/03/20 13:34:39;;;;;;;11.68;6.57;;;8.90;92.20;;;;;;4994254;23;20277;-75
2021/03/20 13:37:06;;;;;;;9.73;6.63;;;8.80;92.10;;;;;;4984391;28;20213;-77
2021/03/20 13:39:33;;;;;;;8.65;6.40;;;8.70;92.40;;;;;;4978986;28;20205;-76
2021/03/20 13:42:00;;;;;;;7.60;6.60;;;8.60;92.90;;;;;;4959070;28;20611;-77
2021/03/20 13:44:28;;;;;;;7.80;5.65;;;8.30;93.10;;;;;;4961700;28;20210;-78
2021/03/20 13:46:55;;;;;;;9.85;6.57;;;8.40;93.30;;;;;;4973310;28;20343;-77
2021/03/20 13:49:23;;;;;;;8.45;5.93;;;8.10;93.80;;;;;;4979372;28;20272;-76
2021/03/20 13:51:49;;;;;;;8.55;7.75;;;8.00;94.40;;;;;;4960439;28;20251;-77
2021/03/20 13:54:18;;;;;;;9.75;8.75;;;7.80;94.70;;;;;;4956488;28;20301;-77